createdAt,value
2019-03-08T00:03:01.564Z,44.09
2019-03-08T00:08:07.811Z,44.03
2019-03-08T00:13:14.239Z,44.77
2019-03-08T00:18:21.588Z,45.78
2019-03-08T00:23:28.593Z,45.14
2019-03-08T00:28:34.328Z,45.80
2019-03-08T00:33:41.016Z,45.33
2019-03-08T00:38:47.563Z,45.48
2019-03-08T00:43:53.719Z,45.50
2019-03-08T00:48:59.968Z,45.20
2019-03-08T00:54:06.790Z,45.82
2019-03-08T00:59:15.471Z,46.01
2019-03-08T01:04:21.453Z,45.70
2019-03-08T01:09:27.104Z,45.62
2019-03-08T01:14:33.209Z,46.93
2019-03-08T01:19:39.395Z,46.86
2019-03-08T01:24:45.571Z,47.96
2019-03-08T01:29:51.794Z,48.26
2019-03-08T01:35:01.771Z,48.15
2019-03-08T01:40:09.451Z,48.42
2019-03-08T01:45:16.734Z,48.46
2019-03-08T01:50:27.868Z,48.45
2019-03-08T01:55:35.409Z,48.71
2019-03-08T02:00:44.481Z,48.76
2019-03-08T02:05:53.909Z,49.43
2019-03-08T02:11:01.748Z,48.74
2019-03-08T02:16:08.327Z,49.39
2019-03-08T02:21:16.979Z,48.99
2019-03-08T02:26:27.435Z,48.72
2019-03-08T02:31:36.811Z,48.45
2019-03-08T02:36:43.859Z,48.88
2019-03-08T02:41:51.467Z,49.08
2019-03-08T02:46:58.931Z,49.10
2019-03-08T02:52:06.897Z,48.52
2019-03-08T02:57:13.064Z,49.44
2019-03-08T03:02:18.806Z,48.97
2019-03-08T03:07:25.921Z,48.76
2019-03-08T03:12:34.131Z,48.89
2019-03-08T03:17:40.184Z,48.09
2019-03-08T03:22:45.864Z,47.62
2019-03-08T03:27:52.694Z,47.73
2019-03-08T03:32:59.987Z,47.71
2019-03-08T03:38:06.431Z,47.66
2019-03-08T03:43:15.033Z,47.49
2019-03-08T03:48:22.108Z,47.55
2019-03-08T03:53:28.227Z,46.96
2019-03-08T03:58:34.038Z,46.85
2019-03-08T04:03:39.620Z,46.47
2019-03-08T04:08:46.150Z,46.17
2019-03-08T04:13:52.322Z,46.13
2019-03-08T04:18:58.828Z,46.15
2019-03-08T04:24:05.670Z,45.55
2019-03-08T04:29:11.436Z,45.07
2019-03-08T04:34:17.366Z,44.83
2019-03-08T04:39:25.125Z,45.13
2019-03-08T04:44:31.051Z,45.06
2019-03-08T04:49:38.024Z,44.70
2019-03-08T04:54:44.358Z,44.81
2019-03-08T04:59:50.054Z,44.90
2019-03-08T05:04:55.793Z,44.72
2019-03-08T05:10:01.466Z,45.30
2019-03-08T05:15:09.118Z,44.72
2019-03-08T05:20:14.945Z,44.56
2019-03-08T05:25:20.473Z,44.79
2019-03-08T05:30:26.807Z,44.00
2019-03-08T05:35:32.862Z,44.52
2019-03-08T05:40:40.065Z,44.40
2019-03-08T05:45:46.141Z,44.58
2019-03-08T05:50:51.868Z,44.91
2019-03-08T05:55:57.579Z,44.31
2019-03-08T06:01:04.370Z,44.54
2019-03-08T06:06:11.751Z,44.51
2019-03-08T06:11:17.327Z,45.17
2019-03-08T06:16:24.637Z,44.66
2019-03-08T06:21:31.340Z,44.86
2019-03-08T06:26:37.116Z,45.62
2019-03-08T06:31:42.717Z,45.60
2019-03-08T06:36:48.793Z,44.73
2019-03-08T06:41:54.916Z,45.91
2019-03-08T06:47:00.690Z,45.44
2019-03-08T06:52:06.247Z,45.95
2019-03-08T06:57:12.176Z,46.69
2019-03-08T07:02:19.483Z,46.81
2019-03-08T07:07:25.794Z,46.24
2019-03-08T07:12:33.085Z,46.20
2019-03-08T07:17:39.679Z,46.75
2019-03-08T07:22:58.856Z,46.98
2019-03-08T07:28:06.493Z,47.01
2019-03-08T07:33:16.861Z,46.51
2019-03-08T07:38:33.266Z,47.06
2019-03-08T07:43:43.769Z,47.46
2019-03-08T07:48:58.324Z,47.20
2019-03-08T07:54:11.747Z,48.25
2019-03-08T07:59:21.990Z,48.60
2019-03-08T08:04:42.828Z,48.32
2019-03-08T08:09:51.105Z,47.92
2019-03-08T08:15:14.849Z,48.56
2019-03-08T08:26:28.447Z,47.81
2019-03-08T08:31:37.632Z,47.87
2019-03-08T08:36:51.292Z,47.92
2019-03-08T08:42:00.167Z,48.13
2019-03-08T08:47:24.203Z,49.13
2019-03-08T08:52:31.459Z,48.75
2019-03-08T08:57:43.712Z,48.32
2019-03-08T09:03:07.845Z,49.63
2019-03-08T09:08:25.913Z,49.19
2019-03-08T09:13:35.924Z,48.93
2019-03-08T09:18:52.993Z,49.35
2019-03-08T09:24:12.151Z,49.80
2019-03-08T09:29:20.716Z,49.31
2019-03-08T09:34:46.430Z,52.44
2019-03-08T09:39:58.254Z,55.02
2019-03-08T09:45:11.717Z,55.68
2019-03-08T09:50:20.411Z,54.73
2019-03-08T09:55:27.951Z,55.26
2019-03-08T10:00:45.359Z,57.46
2019-03-08T10:06:02.830Z,60.25
2019-03-08T10:11:13.181Z,64.43
2019-03-08T10:16:20.767Z,64.49
2019-03-08T10:21:45.023Z,60.58
2019-03-08T10:27:08.010Z,60.58
2019-03-08T10:32:17.191Z,59.60
2019-03-08T10:37:37.866Z,58.22
2019-03-08T10:42:46.963Z,58.27
2019-03-08T10:47:56.467Z,58.05
2019-03-08T10:53:08.918Z,56.89
2019-03-08T10:58:27.846Z,56.20
2019-03-08T11:03:37.880Z,58.24
2019-03-08T11:08:45.676Z,62.33
2019-03-08T11:14:02.008Z,64.57
2019-03-08T11:19:15.373Z,65.02
2019-03-08T11:24:22.965Z,65.32
2019-03-08T11:29:37.359Z,66.64
2019-03-08T11:34:51.929Z,66.55
2019-03-08T11:39:55.608Z,66.38
2019-03-08T11:45:19.594Z,65.53
2019-03-08T11:50:43.752Z,64.14
2019-03-08T11:55:52.623Z,64.43
2019-03-08T12:01:05.962Z,63.78
2019-03-08T12:06:22.337Z,62.40
2019-03-08T12:11:30.487Z,61.49
2019-03-08T12:16:57.147Z,60.68
2019-03-08T12:22:10.985Z,60.91
2019-03-08T12:27:35.568Z,58.19
2019-03-08T12:32:55.521Z,57.85
2019-03-08T12:38:06.641Z,54.92
2019-03-08T12:43:23.535Z,54.11
2019-03-08T12:48:47.244Z,52.80
2019-03-08T12:54:09.645Z,54.85
2019-03-08T12:59:23.870Z,55.30
2019-03-08T13:04:31.904Z,54.35
2019-03-08T13:09:43.292Z,52.26
2019-03-08T13:14:50.304Z,52.38
2019-03-08T13:19:56.365Z,52.39
2019-03-08T13:25:02.828Z,51.93
2019-03-08T13:30:15.067Z,51.19
2019-03-08T13:35:21.398Z,51.55
2019-03-08T13:40:27.178Z,50.37
2019-03-08T13:45:34.729Z,48.95
2019-03-08T13:50:41.187Z,46.27
2019-03-08T13:55:47.909Z,43.99
2019-03-08T14:00:56.048Z,43.34
2019-03-08T14:06:02.599Z,42.73
2019-03-08T14:11:10.011Z,41.86
2019-03-08T14:16:18.406Z,41.74
2019-03-08T14:21:24.329Z,42.33
2019-03-08T14:26:31.834Z,42.22
2019-03-08T14:31:49.235Z,41.98
2019-03-08T14:36:54.642Z,41.48
2019-03-08T14:42:19.319Z,39.37
2019-03-08T14:47:29.370Z,38.38
2019-03-08T14:52:35.696Z,39.83
2019-03-08T14:57:42.131Z,38.45
2019-03-08T15:02:48.679Z,39.64
2019-03-08T15:07:55.188Z,39.74
2019-03-08T15:13:01.474Z,40.63
2019-03-08T15:18:09.677Z,41.70
2019-03-08T15:23:17.126Z,41.06
2019-03-08T15:28:27.161Z,41.89
2019-03-08T15:33:35.632Z,40.40
2019-03-08T15:38:45.263Z,39.61
2019-03-08T15:43:52.742Z,39.71
2019-03-08T15:49:00.497Z,39.07
2019-03-08T15:54:07.942Z,39.79
2019-03-08T15:59:14.161Z,38.48
2019-03-08T16:04:21.104Z,38.19
2019-03-08T16:09:30.410Z,39.00
2019-03-08T16:14:35.993Z,39.12
2019-03-08T16:19:44.353Z,37.83
2019-03-08T16:24:51.487Z,38.74
2019-03-08T16:30:02.999Z,40.53
2019-03-08T16:35:07.812Z,40.24
2019-03-08T16:40:17.981Z,40.92
2019-03-08T16:45:31.079Z,40.24
2019-03-08T16:50:40.279Z,41.30
2019-03-08T16:55:50.283Z,41.94
2019-03-08T17:01:06.990Z,42.29
2019-03-08T17:06:31.478Z,42.75
2019-03-08T17:11:38.994Z,42.25
2019-03-08T17:16:56.699Z,43.02
2019-03-08T17:22:03.912Z,43.04
2019-03-08T17:27:13.290Z,42.66
2019-03-08T17:32:21.764Z,40.25
2019-03-08T17:37:36.696Z,39.02
2019-03-08T17:42:49.903Z,40.27
2019-03-08T17:48:04.335Z,40.50
2019-03-08T17:53:28.301Z,41.72
2019-03-08T17:58:35.741Z,41.81
2019-03-08T18:03:45.767Z,42.53
2019-03-08T18:08:55.894Z,42.32
2019-03-08T18:14:20.250Z,43.19
2019-03-08T18:19:30.352Z,41.98
2019-03-08T18:24:54.487Z,42.26
2019-03-08T18:30:03.887Z,42.65
2019-03-08T18:35:14.835Z,43.49
2019-03-08T18:40:28.923Z,43.02
2019-03-08T18:45:43.042Z,42.84
2019-03-08T18:50:55.330Z,42.90
2019-03-08T18:56:04.061Z,43.03
2019-03-08T19:01:28.112Z,43.39
2019-03-08T19:06:39.180Z,43.62
2019-03-08T19:11:59.150Z,43.89
2019-03-08T19:17:06.540Z,43.85
2019-03-08T19:22:30.960Z,43.58
2019-03-08T19:27:44.860Z,43.44
2019-03-08T19:33:04.027Z,43.71
2019-03-08T19:38:17.179Z,44.33
2019-03-08T19:43:30.621Z,44.16
2019-03-08T19:48:46.637Z,45.11
2019-03-08T19:54:10.565Z,44.87
2019-03-08T19:59:33.957Z,45.20
2019-03-08T20:04:42.056Z,45.06
2019-03-08T20:10:06.512Z,45.10
2019-03-08T20:15:29.448Z,45.72
2019-03-08T20:20:56.945Z,45.64
2019-03-08T20:26:10.786Z,45.90
2019-03-08T20:31:18.667Z,46.86
2019-03-08T20:36:39.977Z,47.28
2019-03-08T20:41:56.880Z,47.73
2019-03-08T20:47:04.915Z,47.13
2019-03-08T20:52:10.566Z,47.46
2019-03-08T20:57:18.652Z,47.66
2019-03-08T21:02:24.302Z,47.97
2019-03-08T21:07:30.520Z,48.41
2019-03-08T21:12:36.090Z,48.35
2019-03-08T21:17:43.756Z,48.06
2019-03-08T21:22:50.009Z,48.43
2019-03-08T21:27:56.241Z,49.08
2019-03-08T21:33:02.409Z,49.40
2019-03-08T21:38:09.234Z,48.63
2019-03-08T21:43:15.204Z,49.95
2019-03-08T21:48:21.581Z,50.05
2019-03-08T21:53:27.502Z,50.20
2019-03-08T21:58:34.961Z,50.19
2019-03-08T22:03:41.100Z,49.72
2019-03-08T22:08:49.436Z,49.98
2019-03-08T22:13:55.383Z,50.56
2019-03-08T22:19:01.818Z,50.91
2019-03-08T22:24:13.470Z,51.11
2019-03-08T22:29:15.249Z,50.33
2019-03-08T22:34:21.254Z,51.25
2019-03-08T22:39:27.037Z,50.69
2019-03-08T22:44:32.959Z,50.71
2019-03-08T22:49:39.240Z,50.72
2019-03-08T22:54:44.842Z,50.30
2019-03-08T22:59:50.441Z,49.88
2019-03-08T23:04:56.995Z,50.07
2019-03-08T23:10:03.308Z,49.96
2019-03-08T23:15:09.610Z,50.03
2019-03-08T23:20:16.042Z,49.50
2019-03-08T23:25:21.677Z,49.36
2019-03-08T23:30:28.657Z,49.91
2019-03-08T23:35:35.195Z,49.67
2019-03-08T23:40:41.136Z,50.19
2019-03-08T23:45:47.037Z,50.28
2019-03-08T23:50:52.670Z,50.84
2019-03-08T23:55:58.316Z,52.73
